Flight Track Log - Related Links

Times and Time Zones

All times are in EDT time to prevent confusion due to time zone crossing. See the EJM214 flight status page for this flight to view local times or setup timezone preferences in your user account.

Time Position Orientation Groundspeed Altitude Reporting Facility
EDT Latitude Longitude Course Direction KTS MPH feet Rate Location/Type
Thu 09:21:17 AM 43.9442 -91.2578 351° North 233 268 3,300  Level Minneapolis Center
Thu 09:22:18 AM 44.0175 -91.2731 351° North 258 297 7,600 4,000 Climbing Minneapolis Center
Thu 09:23:20 AM 44.0606 -91.3331 315° West 252 290 11,500 3,339 Climbing Minneapolis Center
Thu 09:24:22 AM 44.0403 -91.4342 254° West 295 339 14,500 2,683 Climbing Minneapolis Center
Thu 09:25:23 AM 44.0075 -91.5228 243° Southwest 315 362 17,000 3,366 Climbing Minneapolis Center
Thu 09:26:25 AM 43.9475 -91.6856 243° Southwest 337 388 21,400 3,339 Climbing Minneapolis Center
Thu 09:27:27 AM 43.9008 -91.8147 243° Southwest 351 404 23,900 2,468 Climbing Minneapolis Center
Thu 09:28:29 AM 43.8531 -91.9394 242° Southwest 363 418 26,500 2,468 Climbing Minneapolis Center
Thu 09:29:31 AM 43.8069 -92.0661 243° Southwest 367 422 29,000 2,293 Climbing Minneapolis Center
Thu 09:30:32 AM 43.7647 -92.1806 243° Southwest 371 427 31,200 2,146 Climbing Minneapolis Center
Thu 09:31:34 AM 43.7081 -92.3297 242° Southwest 372 428 33,400 1,790 Climbing Minneapolis Center
Thu 09:32:36 AM 43.6597 -92.4581 243° Southwest 379 436 34,900 1,561 Climbing Minneapolis Center
Thu 09:33:37 AM 43.6092 -92.5911 242° Southwest 391 450 36,600 1,512 Climbing Minneapolis Center
Thu 09:34:39 AM 43.5694 -92.6964 243° Southwest 392 451 38,000 1,258 Climbing Minneapolis Center
Thu 09:35:41 AM 43.5092 -92.8542 242° Southwest 392 451 39,200 976 Climbing Minneapolis Center
Thu 09:36:42 AM 43.4678 -92.9619 242° Southwest 399 459 40,000 1,073 Climbing Minneapolis Center
Thu 09:37:44 AM 43.3942 -93.1503 242° Southwest 402 463 41,400 1,016 Climbing Minneapolis Center
Thu 09:38:46 AM 43.3436 -93.2831 242° Southwest 399 459 42,100 585 Climbing Minneapolis Center
Thu 09:39:47 AM 43.2892 -93.4181 241° Southwest 404 465 42,600 439 Climbing Minneapolis Center
Thu 09:40:49 AM 43.2344 -93.5561 241° Southwest 412 474 43,000 194 Climbing Minneapolis Center
Thu 09:41:51 AM 43.1794 -93.6972 242° Southwest 416 479 43,000  Level Minneapolis Center
Thu 09:42:52 AM 43.1133 -93.8647 242° Southwest 425 489 43,000  Level Minneapolis Center
Thu 09:43:54 AM 43.0581 -94.0061 242° Southwest 426 490 43,000  Level Minneapolis Center
Thu 09:44:56 AM 43.0028 -94.1475 242° Southwest 427 491 43,000  Level Minneapolis Center
Thu 09:45:57 AM 42.9458 -94.2894 241° Southwest 428 493 43,000  Level Minneapolis Center
Thu 09:46:59 AM 42.8858 -94.4314 240° Southwest 432 497 43,000  Level Minneapolis Center
Thu 09:48:00 AM 42.8394 -94.5450 241° Southwest 434 499 43,000  Level Minneapolis Center
Thu 09:49:02 AM 42.7583 -94.7428 241° Southwest 420 483 43,000  Level Minneapolis Center
Thu 09:50:04 AM 42.7033 -94.8856 242° Southwest 433 498 43,000  Level Minneapolis Center
Thu 09:51:06 AM 42.6450 -95.0258 241° Southwest 430 495 43,000  Level Minneapolis Center
Thu 09:52:08 AM 42.5856 -95.1681 240° Southwest 434 499 43,000  Level Minneapolis Center
Thu 09:53:09 AM 42.5261 -95.3086 240° Southwest 432 497 43,000  Level Minneapolis Center
Thu 09:54:11 AM 42.4678 -95.4478 240° Southwest 428 493 43,000  Level Minneapolis Center
Thu 09:55:13 AM 42.3972 -95.6144 240° Southwest 427 491 43,000  Level Minneapolis Center
Thu 09:56:14 AM 42.3389 -95.7517 240° Southwest 422 486 43,000  Level Minneapolis Center
Thu 09:57:16 AM 42.2800 -95.8908 240° Southwest 427 491 43,000 49 Level Minneapolis Center
Thu 09:58:17 AM 42.2203 -96.0289 240° Southwest 428 493 43,100 390 Climbing Minneapolis Center
Thu 09:59:19 AM 42.1622 -96.1647 240° Southwest 424 488 43,800 581 Climbing Minneapolis Center
Thu 10:00:21 AM 42.1033 -96.3003 240° Southwest 422 486 44,300 400 Climbing Minneapolis Center
Thu 10:01:34 AM 42.0458 -96.4367 240° Southwest 421 484 44,700 311 Climbing Minneapolis Center
Thu 10:02:36 AM 41.9639 -96.6236 240° Southwest 418 481 45,000 145 Climbing Minneapolis Center
Thu 10:03:38 AM 41.9039 -96.7589 239° Southwest 423 487 45,000  Level Minneapolis Center
Thu 10:04:40 AM 41.8428 -96.8981 240° Southwest 431 496 45,000  Level Minneapolis Center
Thu 10:05:42 AM 41.7747 -97.0300 235° Southwest 432 497 45,000  Level Minneapolis Center
Thu 10:06:55 AM 41.6919 -97.1408 225° Southwest 426 490 45,000  Level Minneapolis Center
Thu 10:07:57 AM 41.5931 -97.2778 226° Southwest 426 490 45,000  Level Minneapolis Center
Thu 10:08:59 AM 41.4878 -97.4097 223° Southwest 432 497 45,000  Level Minneapolis Center
Thu 10:10:01 AM 41.4042 -97.5261 226° Southwest 435 501 45,000  Level Minneapolis Center
Thu 10:11:03 AM 41.3258 -97.6339 226° Southwest 439 505 45,000  Level Minneapolis Center
Thu 10:12:04 AM 41.2564 -97.7633 235° Southwest 436 502 45,000  Level Minneapolis Center
Thu 10:13:18 AM 41.1856 -97.9311 241° Southwest 433 498 45,000  Level Minneapolis Center
Thu 10:14:21 AM 41.1150 -98.1011 241° Southwest 436 502 45,000  Level Minneapolis Center
Thu 10:15:22 AM 41.0536 -98.2461 241° Southwest 444 511 45,000  Level Minneapolis Center
Thu 10:16:24 AM 40.9919 -98.3933 241° Southwest 449 517 45,000  Level Minneapolis Center
Thu 10:17:38 AM 40.9258 -98.5481 241° Southwest 458 527 45,000  Level Minneapolis Center
Thu 10:18:40 AM 40.8497 -98.7275 241° Southwest 465 535 45,000  Level Minneapolis Center
Thu 10:19:42 AM 40.7869 -98.8781 241° Southwest 468 539 45,000  Level Minneapolis Center
Thu 10:20:44 AM 40.7211 -99.0292 240° Southwest 469 540 45,000  Level Minneapolis Center
Thu 10:21:46 AM 40.6569 -99.1789 241° Southwest 469 540 45,000 -339 Level Minneapolis Center
Thu 10:22:48 AM 40.5803 -99.3564 240° Southwest 464 534 44,300 -789 Descending Minneapolis Center
Thu 10:23:40 AM 40.5283 -99.4742 240° Southwest 467 537 43,500 -1,158 Descending Denver Center
Thu 10:24:42 AM 40.4636 -99.6233 240° Southwest 469 540 42,100 -1,597 Descending Denver Center
Thu 10:25:44 AM 40.4000 -99.7667 240° Southwest 458 527 40,200 -1,984 Descending Denver Center
Thu 10:26:46 AM 40.3331 -99.9178 240° Southwest 447 514 38,000 -1,984 Descending Denver Center
Thu 10:27:48 AM 40.2733 -100.0517 240° Southwest 444 511 36,100 -1,984 Descending Denver Center
Thu 10:28:50 AM 40.2019 -100.2119 240° Southwest 452 520 33,900 -2,032 Descending Denver Center
Thu 10:29:52 AM 40.1403 -100.3494 240° Southwest 456 525 31,900 -2,032 Descending Denver Center
Thu 10:30:54 AM 40.0686 -100.5067 239° Southwest 450 518 29,700 -1,984 Descending Denver Center
Thu 10:31:56 AM 40.0064 -100.6447 240° Southwest 458 527 27,800 -2,032 Descending Denver Center
Thu 10:32:58 AM 39.9333 -100.8050 239° Southwest 458 527 25,500 -2,032 Descending Denver Center
Thu 10:34:00 AM 39.8725 -100.9381 239° Southwest 449 517 23,600 -2,032 Descending Denver Center
Thu 10:35:02 AM 39.8039 -101.0881 239° Southwest 432 497 21,300 -2,032 Descending Denver Center
Thu 10:36:04 AM 39.7481 -101.2139 240° Southwest 422 486 19,400 -1,790 Descending Denver Center
Thu 10:37:06 AM 39.6908 -101.3331 238° Southwest 410 472 17,600 -1,984 Descending Denver Center
Thu 10:38:08 AM 39.6292 -101.4678 239° Southwest 392 451 15,300 -2,032 Descending Denver Center
Thu 10:39:10 AM 39.5775 -101.5769 238° Southwest 376 433 13,400 -1,968 Descending Denver Center
Thu 10:40:13 AM 39.5244 -101.6917 239° Southwest 339 390 11,200 -1,776 Descending Denver Center
Thu 10:41:15 AM 39.4814 -101.7803 238° Southwest 310 357 9,700 -1,548 Descending Denver Center
Thu 10:42:17 AM 39.4367 -101.8775 239° Southwest 287 330 8,000 -1,548 Descending Denver Center
Thu 10:43:19 AM 39.3983 -101.9567 238° Southwest 273 314 6,500 -1,452 Descending Denver Center

Login

Don't have an account? Register now (free) for customized features, flight alerts, and more!